Time;durP1;ratioP1;P1;durP2;ratioP2;P2;SDS_P1;SDS_P2;PMS_P1;PMS_P2;Temp;Humidity;BMP_temperature;BMP_pressure;BME280_temperature;BME280_humidity;BME280_pressure;Samples;Min_cycle;Max_cycle;Signal;HPM_P1;HPM_P2
2021/08/13 00:01:58;;;;;;;7.00;3.90;;;;;;;17.95;64.91;101860.66;1779593;79;25763;-62
2021/08/13 00:04:25;;;;;;;12.37;4.03;;;;;;;17.96;65.06;101866.49;1779321;80;26439;-62
2021/08/13 00:06:52;;;;;;;17.32;3.75;;;;;;;17.94;65.22;101863.87;1779386;80;25938;-62
2021/08/13 00:09:21;;;;;;;10.70;3.98;;;;;;;17.95;65.23;101858.78;1779462;79;25739;-62
2021/08/13 00:11:49;;;;;;;12.15;4.42;;;;;;;17.99;65.41;101862.94;1779591;80;27473;-62
2021/08/13 00:14:16;;;;;;;20.25;4.28;;;;;;;17.96;65.13;101863.77;1759513;79;25833;-62
2021/08/13 00:16:43;;;;;;;11.08;3.50;;;;;;;17.95;65.66;101856.06;1811811;79;25820;-62
2021/08/13 00:19:12;;;;;;;9.40;4.25;;;;;;;17.91;66.16;101856.05;1811034;79;25859;-64
2021/08/13 00:21:41;;;;;;;9.73;3.95;;;;;;;17.85;65.20;101862.09;1808380;78;26159;-63
2021/08/13 00:24:09;;;;;;;9.90;3.60;;;;;;;17.82;65.15;101856.99;1782519;79;27476;-62
2021/08/13 00:26:37;;;;;;;10.43;3.75;;;;;;;17.83;65.06;101855.98;1776571;80;26047;-63
2021/08/13 00:29:04;;;;;;;11.50;4.17;;;;;;;17.84;64.82;101853.09;1783921;79;26474;-62
2021/08/13 00:31:31;;;;;;;12.20;3.70;;;;;;;17.86;64.61;101860.25;1784615;80;26180;-61
2021/08/13 00:33:59;;;;;;;9.90;3.72;;;;;;;17.82;65.11;101855.11;1762508;81;25873;-62
2021/08/13 00:36:26;;;;;;;14.55;4.08;;;;;;;17.77;65.75;101855.23;1762196;81;28077;-62
2021/08/13 00:38:55;;;;;;;10.90;4.05;;;;;;;17.70;64.82;101854.16;1762173;81;25735;-61
2021/08/13 00:41:22;;;;;;;12.25;3.90;;;;;;;17.66;64.90;101854.98;1762480;81;25983;-61
2021/08/13 00:43:51;;;;;;;7.22;3.72;;;;;;;17.64;64.76;101855.63;1763359;79;25838;-62
2021/08/13 00:46:19;;;;;;;7.70;3.58;;;;;;;17.58;65.04;101853.55;1762604;80;25749;-62
2021/08/13 00:49:00;;;;;;;7.20;3.90;;;;;;;17.55;65.56;101849.28;1751865;78;27469;-62
2021/08/13 00:51:45;;;;;;;10.38;4.10;;;;;;;17.50;65.16;101842.94;1809375;78;25715;-62
2021/08/13 00:54:14;;;;;;;19.57;4.05;;;;;;;17.48;65.06;101853.64;1762860;81;25927;-62
2021/08/13 00:56:52;;;;;;;14.28;3.67;;;;;;;17.47;65.00;101857.36;1764356;79;25783;-61
2021/08/13 00:59:41;;;;;;;13.05;4.05;;;;;;;17.47;65.12;101856.84;1724066;83;26744;-62
2021/08/13 01:02:21;;;;;;;8.55;3.55;;;;;;;17.46;65.14;101857.02;1779860;79;28714;-61
2021/08/13 01:04:50;;;;;;;11.20;4.00;;;;;;;17.44;65.13;101858.50;1789064;79;25939;-61
2021/08/13 01:07:24;;;;;;;11.35;3.80;;;;;;;17.47;65.53;101861.45;1815060;78;25724;-61
2021/08/13 01:09:52;;;;;;;7.47;3.33;;;;;;;17.47;65.73;101861.45;1815396;78;26411;-61
2021/08/13 01:12:30;;;;;;;6.78;3.80;;;;;;;17.42;66.94;101865.98;1791467;78;26005;-61
2021/08/13 01:15:08;;;;;;;7.05;3.60;;;;;;;17.30;67.65;101863.13;1823558;78;27425;-61
2021/08/13 01:18:03;;;;;;;11.68;4.10;;;;;;;17.15;68.22;101872.31;1790599;80;26549;-61
2021/08/13 01:21:03;;;;;;;8.60;3.02;;;;;;;17.08;67.57;101868.50;1822964;78;25812;-61
2021/08/13 01:23:40;;;;;;;13.45;3.87;;;;;;;17.07;67.31;101877.17;1790942;79;25803;-61
2021/08/13 01:26:10;;;;;;;11.95;3.92;;;;;;;17.10;67.22;101871.41;1761610;80;25780;-61
2021/08/13 01:28:44;;;;;;;16.57;3.83;;;;;;;17.13;67.04;101872.48;1800611;79;26885;-61
2021/08/13 01:31:20;;;;;;;6.60;3.72;;;;;;;17.16;66.97;101872.67;1823061;78;26485;-61
2021/08/13 01:33:55;;;;;;;9.83;4.37;;;;;;;17.20;67.06;101875.45;1823333;78;25933;-61
2021/08/13 01:36:27;;;;;;;12.30;3.95;;;;;;;17.20;66.65;101880.37;1823076;78;26553;-61
2021/08/13 01:39:02;;;;;;;8.55;4.42;;;;;;;17.23;66.79;101880.56;1808064;78;26192;-61
2021/08/13 01:41:35;;;;;;;17.70;4.90;;;;;;;17.21;66.50;101882.59;1824756;78;27320;-61
2021/08/13 01:44:08;;;;;;;14.35;4.40;;;;;;;17.24;66.51;101887.71;1824533;78;25769;-61
2021/08/13 01:46:38;;;;;;;12.73;4.42;;;;;;;17.29;66.35;101891.33;1824870;78;25472;-61
2021/08/13 01:49:06;;;;;;;10.93;4.40;;;;;;;17.26;66.22;101888.42;1765566;80;25785;-61
2021/08/13 01:51:35;;;;;;;11.35;4.28;;;;;;;17.26;66.00;101895.73;1798303;78;25929;-61
2021/08/13 01:54:06;;;;;;;12.65;4.33;;;;;;;17.27;65.82;101894.22;1791936;79;27894;-61
2021/08/13 01:56:35;;;;;;;14.78;4.53;;;;;;;17.25;65.53;101894.86;1824826;78;25851;-61
2021/08/13 01:59:04;;;;;;;9.58;4.03;;;;;;;17.19;65.30;101889.53;1791979;80;25702;-61
2021/08/13 02:01:33;;;;;;;16.50;4.28;;;;;;;17.14;65.28;101899.14;1824673;78;25804;-61
2021/08/13 02:04:02;;;;;;;14.40;4.60;;;;;;;17.05;65.29;101894.97;1792033;79;25494;-61
2021/08/13 02:06:34;;;;;;;13.03;4.47;;;;;;;16.97;65.54;101905.75;1821502;78;27423;-61
2021/08/13 02:09:04;;;;;;;8.60;4.55;;;;;;;16.90;65.70;101908.17;1823950;78;25780;-61
2021/08/13 02:11:33;;;;;;;12.53;4.30;;;;;;;16.88;65.69;101911.57;1824561;78;25797;-61
2021/08/13 02:14:00;;;;;;;8.83;4.55;;;;;;;16.86;65.87;101912.70;1797451;78;26467;-61
2021/08/13 02:16:30;;;;;;;6.55;4.33;;;;;;;16.81;65.74;101914.50;1824567;78;25769;-61
2021/08/13 02:19:11;;;;;;;12.45;3.92;;;;;;;16.78;65.78;101917.55;1813490;78;27456;-61
2021/08/13 02:21:43;;;;;;;10.30;4.47;;;;;;;16.76;66.21;101918.19;1824129;78;25734;-62
2021/08/13 02:24:11;;;;;;;13.53;4.45;;;;;;;16.74;66.30;101918.83;1824823;78;26424;-62
2021/08/13 02:26:38;;;;;;;11.57;4.37;;;;;;;16.74;66.66;101922.91;1799846;78;26398;-62
2021/08/13 02:29:06;;;;;;;15.93;4.03;;;;;;;16.73;67.94;101925.27;1807581;78;26445;-61
2021/08/13 02:31:33;;;;;;;15.48;4.22;;;;;;;16.71;67.09;101930.02;1793710;78;27461;-62
2021/08/13 02:34:00;;;;;;;17.52;4.30;;;;;;;16.70;67.02;101932.38;1818698;78;25768;-62
2021/08/13 02:36:52;;;;;;;16.65;4.40;;;;;;;16.69;67.12;101929.30;1818476;78;25760;-61
2021/08/13 02:39:31;;;;;;;11.60;4.60;;;;;;;16.71;67.08;101929.50;1818563;78;25930;-61
2021/08/13 02:42:02;;;;;;;16.50;4.50;;;;;;;16.75;67.04;101928.70;1818462;78;25772;-61
2021/08/13 02:44:33;;;;;;;9.10;3.85;;;;;;;16.77;66.98;101932.13;1818716;78;28165;-62
2021/08/13 02:47:06;;;;;;;17.17;4.25;;;;;;;16.80;67.07;101930.48;1817299;78;25852;-61
2021/08/13 02:49:36;;;;;;;10.82;4.05;;;;;;;16.83;67.13;101931.53;1818430;78;25813;-62
2021/08/13 02:52:08;;;;;;;10.72;4.12;;;;;;;16.84;67.01;101929.16;1818339;78;25776;-61
2021/08/13 02:54:37;;;;;;;11.97;4.25;;;;;;;16.88;67.23;101930.59;1818743;78;25874;-61
2021/08/13 02:57:06;;;;;;;7.22;4.20;;;;;;;16.91;66.93;101934.87;1786755;78;28172;-61
2021/08/13 02:59:36;;;;;;;8.95;4.15;;;;;;;16.93;66.75;101936.06;1794569;78;26392;-61
2021/08/13 03:02:05;;;;;;;12.37;3.80;;;;;;;16.93;66.66;101928.82;1758852;80;25799;-61
2021/08/13 03:04:35;;;;;;;14.33;4.37;;;;;;;16.89;66.53;101934.16;1758882;81;26029;-61
2021/08/13 03:07:03;;;;;;;9.65;4.00;;;;;;;16.86;66.51;101932.59;1813506;79;25769;-61
2021/08/13 03:09:33;;;;;;;13.30;4.53;;;;;;;16.80;66.38;101934.56;1813474;79;27410;-61
2021/08/13 03:12:02;;;;;;;12.28;4.28;;;;;;;16.74;66.43;101940.09;1813225;79;25748;-61
2021/08/13 03:14:29;;;;;;;15.10;4.33;;;;;;;16.69;66.97;101933.38;1795681;78;25698;-61
2021/08/13 03:16:57;;;;;;;12.65;3.83;;;;;;;16.67;66.81;101934.02;1786055;80;26753;-61
2021/08/13 03:19:25;;;;;;;18.30;4.20;;;;;;;16.63;67.22;101938.05;1786342;80;26114;-61
2021/08/13 03:21:53;;;;;;;13.88;4.22;;;;;;;16.63;67.03;101935.34;1786192;80;28535;-61
2021/08/13 03:24:21;;;;;;;9.90;4.65;;;;;;;16.63;67.03;101938.90;1735575;80;25725;-61
2021/08/13 03:26:49;;;;;;;8.63;4.03;;;;;;;16.63;67.03;101940.77;1780743;80;25711;-61
2021/08/13 03:29:18;;;;;;;9.60;3.85;;;;;;;16.64;66.98;101939.73;1779309;80;25866;-62
2021/08/13 03:31:47;;;;;;;17.52;4.12;;;;;;;16.61;67.45;101946.33;1782670;80;25881;-61
2021/08/13 03:34:17;;;;;;;9.33;4.25;;;;;;;16.59;67.27;101954.64;1787370;80;27430;-63
2021/08/13 03:36:46;;;;;;;14.60;4.28;;;;;;;16.57;67.43;101952.56;1781433;79;25801;-62
2021/08/13 03:39:15;;;;;;;12.40;4.42;;;;;;;16.57;67.47;101955.28;1783348;80;25882;-61
2021/08/13 03:41:43;;;;;;;9.63;4.30;;;;;;;16.63;67.63;101960.63;1785129;80;26851;-62
2021/08/13 03:44:12;;;;;;;11.60;4.03;;;;;;;16.66;67.74;101960.34;1784089;80;25738;-62
2021/08/13 03:46:39;;;;;;;13.13;3.98;;;;;;;16.71;67.63;101959.91;1763871;80;28163;-62
2021/08/13 03:49:08;;;;;;;12.60;4.10;;;;;;;16.76;67.72;101964.90;1812177;78;25752;-62
2021/08/13 03:51:35;;;;;;;8.63;3.58;;;;;;;16.81;67.62;101966.14;1811899;78;25730;-61
2021/08/13 03:54:05;;;;;;;10.53;4.08;;;;;;;16.85;67.38;101966.21;1812237;79;26631;-61
2021/08/13 03:56:32;;;;;;;9.50;4.03;;;;;;;16.87;67.48;101965.56;1822620;78;25947;-61
2021/08/13 03:59:00;;;;;;;17.82;4.40;;;;;;;16.82;68.06;101968.38;1807016;78;28714;-61
2021/08/13 04:01:28;;;;;;;15.93;4.72;;;;;;;16.78;67.84;101964.22;1790310;79;25770;-61
2021/08/13 04:03:55;;;;;;;14.18;4.58;;;;;;;16.79;67.61;101974.09;1791957;79;25787;-61
2021/08/13 04:06:23;;;;;;;17.17;5.15;;;;;;;16.80;67.48;101971.25;1760176;79;25920;-61
2021/08/13 04:08:50;;;;;;;10.23;4.50;;;;;;;16.82;67.38;101981.45;1785214;79;25716;-61
2021/08/13 04:11:18;;;;;;;21.57;6.35;;;;;;;16.84;67.31;101975.36;1784759;80;28286;-61
2021/08/13 04:13:47;;;;;;;17.20;5.53;;;;;;;16.87;67.87;101987.31;1787528;79;26608;-61
2021/08/13 04:16:14;;;;;;;16.17;5.75;;;;;;;16.89;67.29;101983.95;1797817;79;25724;-61
2021/08/13 04:18:40;;;;;;;16.52;5.75;;;;;;;16.93;67.18;101982.27;1797692;79;26266;-61
2021/08/13 04:21:08;;;;;;;14.35;6.30;;;;;;;16.97;67.05;101987.81;1797655;79;26127;-61
2021/08/13 04:23:36;;;;;;;18.35;6.37;;;;;;;17.01;66.96;101992.80;1790195;79;27474;-61
2021/08/13 04:26:03;;;;;;;11.15;5.95;;;;;;;17.04;66.87;101995.72;1781846;80;25807;-61
2021/08/13 04:28:32;;;;;;;15.03;5.97;;;;;;;17.07;66.83;101994.56;1789565;79;25743;-61
2021/08/13 04:31:00;;;;;;;16.80;5.92;;;;;;;17.11;67.03;101995.98;1797541;79;26463;-61
2021/08/13 04:33:27;;;;;;;19.15;5.72;;;;;;;17.10;66.64;101996.98;1797767;79;25764;-61
2021/08/13 04:35:56;;;;;;;23.47;6.10;;;;;;;17.08;66.68;102004.43;1797387;79;27544;-61
2021/08/13 04:38:23;;;;;;;24.47;6.12;;;;;;;17.00;66.64;102001.96;1792553;79;25790;-61
2021/08/13 04:40:50;;;;;;;18.85;5.85;;;;;;;16.99;66.88;102005.68;1784855;80;25684;-61
2021/08/13 04:43:18;;;;;;;18.30;6.25;;;;;;;16.97;66.79;102003.61;1793198;79;26708;-62
2021/08/13 04:45:45;;;;;;;23.50;6.17;;;;;;;16.94;67.02;102012.56;1792869;79;25734;-61
2021/08/13 04:48:12;;;;;;;18.07;5.95;;;;;;;16.94;67.05;102015.28;1815293;78;28149;-61
2021/08/13 04:50:40;;;;;;;18.20;5.95;;;;;;;16.94;67.12;102020.23;1815099;78;25697;-62
2021/08/13 04:53:08;;;;;;;15.32;6.47;;;;;;;16.98;66.99;102020.78;1815294;78;25737;-62
2021/08/13 04:55:36;;;;;;;19.07;6.47;;;;;;;17.07;66.96;102021.26;1816382;78;25841;-62
2021/08/13 04:58:03;;;;;;;20.35;6.80;;;;;;;17.17;66.77;102022.57;1823599;78;25744;-62
2021/08/13 05:00:30;;;;;;;27.85;6.75;;;;;;;17.20;66.58;102019.05;1790721;80;27478;-62
2021/08/13 05:03:07;;;;;;;16.32;6.17;;;;;;;17.25;66.31;102024.55;1829040;78;25843;-62
2021/08/13 05:05:36;;;;;;;20.85;6.30;;;;;;;17.32;66.06;102022.94;1829795;78;25741;-62
2021/08/13 05:08:05;;;;;;;16.15;6.80;;;;;;;17.40;65.73;102031.20;1831320;78;25822;-62
2021/08/13 05:10:32;;;;;;;16.48;6.37;;;;;;;17.46;65.42;102035.19;1809022;78;26051;-62
2021/08/13 05:13:01;;;;;;;17.35;6.55;;;;;;;17.46;65.22;102037.91;1801845;78;27475;-62
2021/08/13 05:15:29;;;;;;;16.85;6.50;;;;;;;17.49;65.00;102034.86;1823313;78;26160;-61
2021/08/13 05:17:56;;;;;;;17.73;6.47;;;;;;;17.56;64.79;102038.72;1823272;78;25780;-61
2021/08/13 05:20:24;;;;;;;24.87;6.17;;;;;;;17.56;64.55;102042.80;1821167;78;26378;-61
2021/08/13 05:22:53;;;;;;;13.58;6.03;;;;;;;17.53;64.27;102044.45;1791642;78;25741;-61
2021/08/13 05:25:21;;;;;;;18.57;7.08;;;;;;;17.52;64.29;102049.05;1777490;80;27446;-61
2021/08/13 05:27:48;;;;;;;21.12;6.95;;;;;;;17.55;64.26;102047.02;1765384;80;25739;-62
2021/08/13 05:30:16;;;;;;;18.62;6.53;;;;;;;17.56;64.37;102048.73;1760845;81;26534;-62
2021/08/13 05:32:50;;;;;;;15.10;6.08;;;;;;;17.61;64.32;102045.91;1761009;80;25925;-61
2021/08/13 05:35:17;;;;;;;18.67;6.67;;;;;;;17.68;64.28;102055.69;1761268;81;25810;-61
2021/08/13 05:37:45;;;;;;;14.33;5.53;;;;;;;17.72;63.97;102057.08;1760521;80;27455;-61
2021/08/13 05:40:13;;;;;;;13.60;6.15;;;;;;;17.79;63.71;102053.26;1763009;80;25943;-62
2021/08/13 05:42:40;;;;;;;25.55;7.05;;;;;;;17.83;63.42;102051.95;1762839;80;25841;-61
2021/08/13 05:45:09;;;;;;;23.15;7.55;;;;;;;17.91;63.31;102057.97;1765422;80;26485;-62
2021/08/13 05:47:38;;;;;;;17.95;7.08;;;;;;;17.96;63.11;102051.62;1766239;80;25735;-61
2021/08/13 05:50:10;;;;;;;16.40;7.22;;;;;;;18.03;62.88;102049.11;1767258;80;28361;-61
2021/08/13 05:52:40;;;;;;;20.10;7.28;;;;;;;18.05;62.69;102047.09;1760282;80;25850;-62
2021/08/13 05:55:09;;;;;;;15.50;7.15;;;;;;;18.11;62.61;102045.98;1766038;79;25838;-61
2021/08/13 05:57:38;;;;;;;16.85;7.03;;;;;;;18.20;62.42;102048.78;1759117;80;26639;-61
2021/08/13 06:00:08;;;;;;;25.68;7.47;;;;;;;18.25;62.38;102042.34;1764964;80;25759;-61
2021/08/13 06:02:53;;;;;;;28.38;9.40;;;;;;;18.31;62.22;102051.28;1764179;80;27476;-62
2021/08/13 06:05:21;;;;;;;34.73;8.68;;;;;;;18.36;62.34;102046.20;1758911;80;26602;-62
2021/08/13 06:07:50;;;;;;;19.75;7.65;;;;;;;18.42;62.21;102052.38;1766907;80;25789;-62
2021/08/13 06:10:19;;;;;;;28.10;8.55;;;;;;;18.44;62.15;102047.63;1756959;80;25720;-62
2021/08/13 06:12:47;;;;;;;21.23;8.20;;;;;;;18.43;62.13;102048.64;1765718;80;25784;-62
2021/08/13 06:15:16;;;;;;;23.57;8.70;;;;;;;18.51;62.19;102043.78;1747420;80;27451;-62
2021/08/13 06:17:44;;;;;;;26.05;7.30;;;;;;;18.57;62.22;102049.11;1772061;80;25741;-62
2021/08/13 06:20:15;;;;;;;25.65;7.03;;;;;;;18.63;62.21;102046.27;1767720;80;25710;-62
2021/08/13 06:22:43;;;;;;;15.85;7.28;;;;;;;18.72;62.15;102046.67;1762110;80;25818;-62
2021/08/13 06:25:12;;;;;;;20.55;8.43;;;;;;;18.78;62.05;102049.59;1774239;80;25755;-61
2021/08/13 06:27:44;;;;;;;25.55;7.53;;;;;;;18.88;61.98;102045.91;1785374;79;27553;-61
2021/08/13 06:30:15;;;;;;;21.85;7.60;;;;;;;18.95;61.83;102047.04;1760816;80;25881;-64
2021/08/13 06:32:42;;;;;;;13.95;6.37;;;;;;;19.03;61.76;102045.73;1767239;80;26023;-62
2021/08/13 06:35:11;;;;;;;20.82;6.85;;;;;;;19.14;61.45;102045.11;1769536;80;26286;-63
2021/08/13 06:37:52;;;;;;;19.95;6.95;;;;;;;19.23;61.27;102037.28;1758965;81;25821;-63
2021/08/13 06:40:20;;;;;;;17.82;6.22;;;;;;;19.35;60.80;102044.70;1766320;79;27465;-63
2021/08/13 06:42:49;;;;;;;14.15;6.33;;;;;;;19.46;60.64;102044.91;1769631;80;25902;-65
2021/08/13 06:45:22;;;;;;;16.07;5.90;;;;;;;19.58;60.49;102047.70;1758078;80;25800;-63
2021/08/13 06:47:50;;;;;;;20.30;8.05;;;;;;;19.67;59.86;102043.98;1760838;79;26536;-62
2021/08/13 06:50:19;;;;;;;12.80;5.90;;;;;;;19.77;59.55;102050.66;1767466;80;25851;-60
2021/08/13 06:52:48;;;;;;;11.03;5.95;;;;;;;19.83;58.35;102047.77;1777600;80;27455;-61
2021/08/13 06:55:17;;;;;;;16.23;6.25;;;;;;;19.89;57.91;102051.22;1769344;80;25782;-63
2021/08/13 06:58:10;;;;;;;15.18;6.10;;;;;;;19.95;57.78;102042.88;1778750;80;25743;-63
2021/08/13 07:00:36;;;;;;;15.10;7.03;;;;;;;20.03;56.90;102046.15;1778938;80;25996;-61
2021/08/13 07:03:04;;;;;;;14.18;5.53;;;;;;;20.11;56.88;102052.98;1772773;80;25846;-61
2021/08/13 07:05:31;;;;;;;17.80;6.12;;;;;;;20.15;56.28;102048.39;1761243;80;28353;-61
2021/08/13 07:08:12;;;;;;;11.45;5.55;;;;;;;20.24;56.38;102047.03;1760707;81;25787;-64
2021/08/13 07:10:46;;;;;;;13.18;5.75;;;;;;;20.39;56.54;102048.58;1755479;80;26605;-60
2021/08/13 07:13:13;;;;;;;12.07;5.12;;;;;;;20.52;56.66;102042.08;1761234;81;25799;-61
2021/08/13 07:15:40;;;;;;;15.03;5.92;;;;;;;20.63;56.38;102048.56;1761064;81;25836;-62
2021/08/13 07:18:08;;;;;;;15.45;6.03;;;;;;;20.71;56.33;102041.38;1761415;81;27894;-61
2021/08/13 07:20:34;;;;;;;14.95;5.78;;;;;;;20.80;55.29;102043.11;1762211;80;26463;-62
2021/08/13 07:23:03;;;;;;;19.92;5.67;;;;;;;20.87;55.51;102038.64;1761418;81;25795;-62
2021/08/13 07:25:31;;;;;;;21.62;7.78;;;;;;;20.96;55.30;102032.66;1761628;81;27015;-62
2021/08/13 07:27:58;;;;;;;27.77;5.37;;;;;;;21.06;55.09;102028.35;1779287;80;25721;-62
2021/08/13 07:30:27;;;;;;;20.30;6.62;;;;;;;21.14;55.20;102031.59;1783729;80;27383;-62
2021/08/13 07:32:54;;;;;;;16.23;5.87;;;;;;;21.25;54.68;102029.81;1790386;80;25721;-62
2021/08/13 07:35:21;;;;;;;17.23;5.37;;;;;;;21.35;54.83;102031.00;1790364;80;25763;-62
2021/08/13 07:37:50;;;;;;;12.73;5.17;;;;;;;21.42;54.09;102028.75;1790658;80;26349;-62
2021/08/13 07:40:18;;;;;;;14.83;5.58;;;;;;;21.51;53.90;102035.03;1790509;80;25438;-62
2021/08/13 07:42:45;;;;;;;10.58;4.78;;;;;;;21.63;51.82;102030.03;1790372;80;27424;-62
2021/08/13 07:45:13;;;;;;;11.50;5.22;;;;;;;21.73;52.58;102033.94;1776981;80;25846;-62
2021/08/13 07:47:40;;;;;;;13.58;5.97;;;;;;;21.81;52.64;102033.02;1785282;80;25466;-63
2021/08/13 07:50:09;;;;;;;12.03;4.95;;;;;;;21.88;51.94;102032.12;1786905;80;25807;-62
2021/08/13 07:52:37;;;;;;;7.25;4.28;;;;;;;21.99;51.11;102034.95;1749389;80;25862;-62
2021/08/13 07:55:05;;;;;;;12.70;4.37;;;;;;;22.10;50.96;102034.20;1790301;80;27474;-62
2021/08/13 07:57:32;;;;;;;6.78;4.28;;;;;;;22.19;50.45;102028.47;1790176;80;25711;-62
2021/08/13 07:59:59;;;;;;;12.05;5.30;;;;;;;22.28;50.12;102028.41;1778729;80;25762;-62
2021/08/13 08:02:27;;;;;;;7.37;4.25;;;;;;;22.36;49.49;102028.37;1777576;79;26451;-62
2021/08/13 08:04:53;;;;;;;10.13;4.28;;;;;;;22.48;48.79;102020.58;1777690;79;25835;-63
2021/08/13 08:07:20;;;;;;;11.97;4.22;;;;;;;22.59;49.03;102024.22;1777977;80;27443;-62
2021/08/13 08:09:47;;;;;;;13.90;3.83;;;;;;;22.71;48.54;102020.53;1777530;80;25703;-62
2021/08/13 08:12:14;;;;;;;8.53;3.47;;;;;;;22.82;47.77;102020.59;1781925;80;25763;-62
2021/08/13 08:14:40;;;;;;;9.38;3.47;;;;;;;22.88;46.20;102020.36;1786671;80;25774;-62
2021/08/13 08:17:07;;;;;;;6.08;3.40;;;;;;;22.97;46.10;102021.98;1789669;80;26331;-62
2021/08/13 08:19:34;;;;;;;7.72;3.30;;;;;;;23.03;45.18;102028.61;1786717;80;27534;-62
2021/08/13 08:22:00;;;;;;;8.30;3.42;;;;;;;23.09;44.38;102025.94;1790008;80;25794;-62
2021/08/13 08:24:27;;;;;;;7.10;3.45;;;;;;;23.14;44.45;102029.48;1778139;80;25711;-62
2021/08/13 08:26:54;;;;;;;15.50;3.92;;;;;;;23.27;44.73;102021.48;1778304;80;26483;-61
2021/08/13 08:29:20;;;;;;;9.03;3.22;;;;;;;23.41;44.33;102015.65;1780477;80;26631;-62
2021/08/13 08:31:47;;;;;;;9.15;3.05;;;;;;;23.56;44.17;102013.38;1780706;80;28209;-62
2021/08/13 08:34:14;;;;;;;7.30;3.15;;;;;;;23.66;42.70;102017.22;1769550;80;25980;-62
2021/08/13 08:36:40;;;;;;;7.83;2.67;;;;;;;23.80;42.46;102023.18;1766198;80;26593;-62
2021/08/13 08:39:07;;;;;;;6.25;2.80;;;;;;;23.98;42.26;102021.38;1787973;80;25886;-62
2021/08/13 08:41:34;;;;;;;8.83;3.05;;;;;;;24.04;41.16;102024.75;1787440;80;25757;-62
2021/08/13 08:44:01;;;;;;;10.18;3.72;;;;;;;24.20;41.92;102018.65;1789035;80;27800;-62
2021/08/13 08:46:29;;;;;;;5.97;3.37;;;;;;;24.42;41.33;102016.73;1787303;80;26086;-62
2021/08/13 08:48:56;;;;;;;10.20;3.37;;;;;;;24.58;40.64;102011.47;1783032;80;25792;-62
2021/08/13 08:51:25;;;;;;;6.17;3.33;;;;;;;24.77;39.68;102018.20;1784228;80;25958;-61
2021/08/13 08:54:11;;;;;;;10.75;2.60;;;;;;;24.93;40.30;102012.91;1785580;79;25869;-64
2021/08/13 08:56:52;;;;;;;6.25;2.67;;;;;;;25.09;39.94;102012.26;1732193;80;25984;-64
2021/08/13 08:59:22;;;;;;;7.17;3.65;;;;;;;25.26;39.47;102016.37;1775204;80;26679;-62
2021/08/13 09:01:49;;;;;;;8.40;3.10;;;;;;;25.48;39.31;102016.30;1766838;80;25757;-62
2021/08/13 09:04:16;;;;;;;6.67;3.52;;;;;;;25.71;37.05;102015.09;1785219;80;25824;-62
2021/08/13 09:06:43;;;;;;;6.37;3.58;;;;;;;25.83;37.95;102018.09;1766727;80;26267;-62
2021/08/13 09:09:11;;;;;;;6.78;2.60;;;;;;;26.02;37.92;102015.07;1799086;78;28136;-63
2021/08/13 09:11:41;;;;;;;8.18;3.30;;;;;;;26.19;36.13;102008.12;1776823;80;26419;-62
2021/08/13 09:14:13;;;;;;;14.47;3.17;;;;;;;26.35;35.06;102017.04;1788912;78;25813;-62
2021/08/13 09:16:59;;;;;;;5.90;2.77;;;;;;;26.41;33.80;102016.18;1779538;78;25800;-62
2021/08/13 09:19:47;;;;;;;5.47;2.87;;;;;;;26.50;34.68;102012.69;1778743;80;25754;-63
2021/08/13 09:22:18;;;;;;;13.08;5.75;;;;;;;26.76;34.35;102007.66;1778137;79;28284;-62
2021/08/13 09:24:49;;;;;;;5.67;3.12;;;;;;;27.04;34.64;102009.33;1792949;78;26496;-62
2021/08/13 09:27:29;;;;;;;5.65;3.52;;;;;;;27.34;34.05;102008.27;1816750;78;25785;-62
2021/08/13 09:30:17;;;;;;;8.83;3.52;;;;;;;27.61;33.00;102006.80;1803447;78;25753;-62
2021/08/13 09:33:08;;;;;;;13.48;3.60;;;;;;;28.03;32.70;102003.56;1770571;78;26435;-62
2021/08/13 09:35:39;;;;;;;4.97;2.20;;;;;;;28.48;30.19;102000.37;1765375;78;27521;-62
2021/08/13 09:38:12;;;;;;;13.85;2.70;;;;;;;28.81;28.97;102000.08;1771710;80;26012;-62
2021/08/13 09:40:42;;;;;;;10.38;2.52;;;;;;;29.17;28.78;101989.25;1791609;80;25777;-64
2021/08/13 09:43:09;;;;;;;6.92;2.25;;;;;;;29.70;30.14;101988.27;1789413;80;26466;-62
2021/08/13 09:45:36;;;;;;;7.75;2.52;;;;;;;30.29;29.17;101982.89;1792020;80;25729;-62
2021/08/13 09:48:04;;;;;;;7.17;2.10;;;;;;;30.88;28.52;101986.20;1791746;80;27485;-62
2021/08/13 09:50:41;;;;;;;4.50;2.17;;;;;;;31.16;26.19;101983.23;1787831;79;25691;-63
2021/08/13 09:53:14;;;;;;;7.22;2.42;;;;;;;31.41;25.66;101983.44;1779333;80;25759;-63
2021/08/13 09:55:42;;;;;;;;;;;;;;;32.00;24.80;101974.30;1786910;79;25803;-64
2021/08/13 09:58:29;;;;;;;;;;;;;;;;;;;;;
2021/08/13 10:00:50;;;;;;;6.95;2.00;;;;;;;32.67;24.64;101981.48;1751204;80;26442;-63
2021/08/13 10:03:19;;;;;;;2.98;1.60;;;;;;;32.93;23.51;101973.51;1791605;80;26492;-63
2021/08/13 10:06:04;;;;;;;6.05;2.08;;;;;;;33.31;24.18;101973.11;1791738;80;25813;-63
2021/08/13 10:08:42;;;;;;;10.08;1.80;;;;;;;33.74;22.79;101973.89;1792119;80;25859;-63
2021/08/13 10:11:13;;;;;;;6.28;1.90;;;;;;;33.70;22.32;101970.22;1791361;80;25920;-63
2021/08/13 10:13:42;;;;;;;4.58;1.98;;;;;;;34.00;22.60;101966.07;1791541;80;27521;-63
2021/08/13 10:16:21;;;;;;;3.92;1.85;;;;;;;34.05;21.29;101961.09;1787780;79;26449;-63
2021/08/13 10:18:57;;;;;;;4.37;2.45;;;;;;;34.06;22.33;101968.89;1758140;80;25882;-63
2021/08/13 10:21:29;;;;;;;7.20;2.70;;;;;;;34.28;21.86;101962.66;1788408;79;25936;-62
2021/08/13 10:23:57;;;;;;;6.17;2.47;;;;;;;34.22;22.22;101963.71;1791417;80;26544;-63
2021/08/13 10:26:26;;;;;;;4.70;2.30;;;;;;;34.66;21.93;101965.97;1792426;80;28264;-64
2021/08/13 10:28:54;;;;;;;5.67;2.30;;;;;;;34.93;22.32;101965.30;1758317;79;25986;-63
2021/08/13 10:31:22;;;;;;;7.92;1.72;;;;;;;35.21;21.46;101968.77;1783175;79;25778;-64
2021/08/13 10:33:52;;;;;;;6.80;3.85;;;;;;;35.53;21.21;101964.12;1789904;79;25801;-63
2021/08/13 10:36:20;;;;;;;6.33;2.50;;;;;;;35.86;21.12;101966.14;1769412;80;25997;-63
2021/08/13 10:38:50;;;;;;;7.37;2.87;;;;;;;36.22;20.40;101963.89;1760230;80;27472;-63
2021/08/13 10:41:24;;;;;;;8.53;1.87;;;;;;;36.48;20.22;101964.16;1760095;81;25878;-63
2021/08/13 10:43:54;;;;;;;7.62;2.05;;;;;;;36.62;20.14;101959.37;1765588;80;26391;-63
2021/08/13 10:46:23;;;;;;;3.65;2.10;;;;;;;36.60;18.41;101961.62;1782311;79;26431;-63
2021/08/13 10:48:53;;;;;;;8.05;2.22;;;;;;;36.62;19.94;101968.61;1786129;80;25849;-63
2021/08/13 10:51:34;;;;;;;5.12;2.20;;;;;;;37.12;19.95;101960.86;1784689;79;27367;-63
2021/08/13 10:54:08;;;;;;;8.43;2.50;;;;;;;37.67;19.15;101951.02;1783954;80;25773;-63
2021/08/13 10:56:44;;;;;;;10.45;2.92;;;;;;;37.93;17.76;101952.23;1788352;80;25841;-63
2021/08/13 10:59:36;;;;;;;7.22;2.37;;;;;;;37.76;18.44;101948.98;1791160;80;26604;-65
2021/08/13 11:02:16;;;;;;;4.53;2.20;;;;;;;37.84;17.78;101949.75;1781364;79;26583;-64
2021/08/13 11:04:52;;;;;;;7.70;2.20;;;;;;;37.79;18.05;101949.23;1783881;80;28185;-63
2021/08/13 11:08:00;;;;;;;3.25;2.00;;;;;;;37.74;18.44;101950.11;1784005;79;25909;-63
2021/08/13 11:10:43;;;;;;;7.85;2.40;;;;;;;37.93;18.46;101949.97;1779988;80;25764;-63
2021/08/13 11:13:17;;;;;;;5.92;2.15;;;;;;;37.82;17.94;101949.20;1788249;79;26605;-62
2021/08/13 11:15:47;;;;;;;7.83;2.55;;;;;;;37.88;17.66;101946.64;1782350;80;25731;-63
2021/08/13 11:18:38;;;;;;;9.88;2.42;;;;;;;38.01;18.17;101953.58;1778921;79;28296;-63
2021/08/13 11:21:09;;;;;;;4.35;2.30;;;;;;;38.39;18.16;101952.95;1777839;80;25824;-63
2021/08/13 11:24:00;;;;;;;7.53;2.70;;;;;;;38.74;17.34;101946.64;1737802;81;25822;-63
2021/08/13 11:26:58;;;;;;;7.40;2.05;;;;;;;38.86;16.83;101944.83;1752410;80;26514;-64
2021/08/13 11:29:34;;;;;;;4.15;2.42;;;;;;;38.76;17.35;101943.78;1789571;79;25774;-63
2021/08/13 11:32:19;;;;;;;5.90;2.10;;;;;;;39.18;16.60;101939.88;1765961;80;27533;-63
2021/08/13 11:34:51;;;;;;;5.40;2.20;;;;;;;38.71;17.26;101943.01;1760492;81;25723;-63
2021/08/13 11:37:37;;;;;;;11.48;2.70;;;;;;;38.36;16.81;101932.73;1775721;80;25865;-63
2021/08/13 11:40:23;;;;;;;16.70;2.77;;;;;;;38.13;17.38;101932.94;1791699;80;26110;-64